sensor_id;sensor_type;location;lat;lon;timestamp;temperature;humidity
35463;DHT22;21578;47.892;9.970;2023-03-01T00:03:07;-1.20;96.60
35463;DHT22;21578;47.892;9.970;2023-03-01T00:07:54;-1.20;96.60
35463;DHT22;21578;47.892;9.970;2023-03-01T00:12:42;-1.20;96.60
35463;DHT22;21578;47.892;9.970;2023-03-01T00:17:29;-1.20;96.60
35463;DHT22;21578;47.892;9.970;2023-03-01T00:22:16;-1.10;96.60
35463;DHT22;21578;47.892;9.970;2023-03-01T00:27:03;-1.10;96.60
35463;DHT22;21578;47.892;9.970;2023-03-01T00:31:51;-1.10;96.60
35463;DHT22;21578;47.892;9.970;2023-03-01T00:36:38;-1.10;96.60
35463;DHT22;21578;47.892;9.970;2023-03-01T00:41:25;-1.10;96.60
35463;DHT22;21578;47.892;9.970;2023-03-01T00:46:14;-1.00;96.60
35463;DHT22;21578;47.892;9.970;2023-03-01T00:51:07;-1.00;96.60
35463;DHT22;21578;47.892;9.970;2023-03-01T00:55:56;-1.00;96.60
35463;DHT22;21578;47.892;9.970;2023-03-01T01:00:43;-0.90;96.60
35463;DHT22;21578;47.892;9.970;2023-03-01T01:05:30;-0.90;96.60
35463;DHT22;21578;47.892;9.970;2023-03-01T01:10:19;-1.00;96.60
35463;DHT22;21578;47.892;9.970;2023-03-01T01:15:06;-1.00;96.60
35463;DHT22;21578;47.892;9.970;2023-03-01T01:19:53;-0.90;96.60
35463;DHT22;21578;47.892;9.970;2023-03-01T01:24:40;-0.90;96.60
35463;DHT22;21578;47.892;9.970;2023-03-01T01:29:28;-1.00;96.60
35463;DHT22;21578;47.892;9.970;2023-03-01T01:34:17;-1.00;96.60
35463;DHT22;21578;47.892;9.970;2023-03-01T01:39:04;-0.90;96.60
35463;DHT22;21578;47.892;9.970;2023-03-01T01:44:10;-0.90;96.60
35463;DHT22;21578;47.892;9.970;2023-03-01T01:49:02;-0.90;96.60
35463;DHT22;21578;47.892;9.970;2023-03-01T01:53:54;-0.90;96.60
35463;DHT22;21578;47.892;9.970;2023-03-01T01:58:43;-0.80;96.60
35463;DHT22;21578;47.892;9.970;2023-03-01T02:03:33;-0.90;96.60
35463;DHT22;21578;47.892;9.970;2023-03-01T02:08:27;-0.90;96.60
35463;DHT22;21578;47.892;9.970;2023-03-01T02:13:16;-0.90;96.60
35463;DHT22;21578;47.892;9.970;2023-03-01T02:18:03;-0.90;96.60
35463;DHT22;21578;47.892;9.970;2023-03-01T02:22:52;-1.00;96.60
35463;DHT22;21578;47.892;9.970;2023-03-01T02:27:51;-1.00;96.60
35463;DHT22;21578;47.892;9.970;2023-03-01T02:32:41;-1.00;96.60
35463;DHT22;21578;47.892;9.970;2023-03-01T02:37:28;-1.00;96.60
35463;DHT22;21578;47.892;9.970;2023-03-01T02:42:18;-1.00;96.60
35463;DHT22;21578;47.892;9.970;2023-03-01T02:47:08;-0.90;96.60
35463;DHT22;21578;47.892;9.970;2023-03-01T02:52:20;-0.90;96.60
35463;DHT22;21578;47.892;9.970;2023-03-01T02:57:09;-0.90;96.60
35463;DHT22;21578;47.892;9.970;2023-03-01T03:01:56;-0.90;96.60
35463;DHT22;21578;47.892;9.970;2023-03-01T03:06:44;-0.80;96.60
35463;DHT22;21578;47.892;9.970;2023-03-01T03:11:32;-0.80;96.60
35463;DHT22;21578;47.892;9.970;2023-03-01T03:16:19;-0.90;96.60
35463;DHT22;21578;47.892;9.970;2023-03-01T03:21:08;-0.90;96.60
35463;DHT22;21578;47.892;9.970;2023-03-01T03:25:56;-0.90;96.60
35463;DHT22;21578;47.892;9.970;2023-03-01T03:30:45;-0.90;96.60
35463;DHT22;21578;47.892;9.970;2023-03-01T03:35:37;-0.90;96.60
35463;DHT22;21578;47.892;9.970;2023-03-01T03:40:25;-0.90;96.60
35463;DHT22;21578;47.892;9.970;2023-03-01T03:45:12;-0.90;96.60
35463;DHT22;21578;47.892;9.970;2023-03-01T03:50:00;-0.80;96.60
35463;DHT22;21578;47.892;9.970;2023-03-01T03:54:47;-0.90;96.60
35463;DHT22;21578;47.892;9.970;2023-03-01T03:59:34;-0.80;96.60
35463;DHT22;21578;47.892;9.970;2023-03-01T04:04:21;-0.80;96.60
35463;DHT22;21578;47.892;9.970;2023-03-01T04:09:09;-0.90;96.60
35463;DHT22;21578;47.892;9.970;2023-03-01T04:13:57;-0.90;96.60
35463;DHT22;21578;47.892;9.970;2023-03-01T04:18:46;-0.90;96.60
35463;DHT22;21578;47.892;9.970;2023-03-01T04:23:32;-0.90;96.60
35463;DHT22;21578;47.892;9.970;2023-03-01T04:28:23;-0.90;96.60
35463;DHT22;21578;47.892;9.970;2023-03-01T04:33:11;-0.90;96.60
35463;DHT22;21578;47.892;9.970;2023-03-01T04:37:58;-0.90;96.60
35463;DHT22;21578;47.892;9.970;2023-03-01T04:42:45;-0.90;96.60
35463;DHT22;21578;47.892;9.970;2023-03-01T04:47:34;-0.90;96.60
35463;DHT22;21578;47.892;9.970;2023-03-01T04:52:23;-0.90;96.60
35463;DHT22;21578;47.892;9.970;2023-03-01T04:57:10;-1.00;96.60
35463;DHT22;21578;47.892;9.970;2023-03-01T05:01:57;-1.00;96.60
35463;DHT22;21578;47.892;9.970;2023-03-01T05:06:47;-0.90;96.60
35463;DHT22;21578;47.892;9.970;2023-03-01T05:11:34;-0.90;96.60
35463;DHT22;21578;47.892;9.970;2023-03-01T05:16:21;-0.80;96.60
35463;DHT22;21578;47.892;9.970;2023-03-01T05:21:10;-0.80;96.60
35463;DHT22;21578;47.892;9.970;2023-03-01T05:26:00;-0.90;96.60
35463;DHT22;21578;47.892;9.970;2023-03-01T05:30:47;-1.00;96.60
35463;DHT22;21578;47.892;9.970;2023-03-01T05:35:37;-0.90;96.60
35463;DHT22;21578;47.892;9.970;2023-03-01T05:40:24;-0.90;96.60
35463;DHT22;21578;47.892;9.970;2023-03-01T05:45:13;-0.90;96.60
35463;DHT22;21578;47.892;9.970;2023-03-01T05:50:00;-1.00;96.60
35463;DHT22;21578;47.892;9.970;2023-03-01T05:54:47;-0.90;96.60
35463;DHT22;21578;47.892;9.970;2023-03-01T05:59:35;-0.90;96.60
35463;DHT22;21578;47.892;9.970;2023-03-01T06:04:23;-0.90;96.60
35463;DHT22;21578;47.892;9.970;2023-03-01T06:09:10;-0.90;96.60
35463;DHT22;21578;47.892;9.970;2023-03-01T06:13:57;-1.00;96.60
35463;DHT22;21578;47.892;9.970;2023-03-01T06:18:44;-0.90;96.60
35463;DHT22;21578;47.892;9.970;2023-03-01T06:23:32;-0.90;96.60
35463;DHT22;21578;47.892;9.970;2023-03-01T06:28:19;-1.00;96.60
35463;DHT22;21578;47.892;9.970;2023-03-01T06:33:07;-1.00;96.60
35463;DHT22;21578;47.892;9.970;2023-03-01T06:37:53;-1.00;96.60
35463;DHT22;21578;47.892;9.970;2023-03-01T06:42:43;-1.00;96.60
35463;DHT22;21578;47.892;9.970;2023-03-01T06:47:34;-1.00;96.60
35463;DHT22;21578;47.892;9.970;2023-03-01T06:52:21;-1.00;96.60
35463;DHT22;21578;47.892;9.970;2023-03-01T06:57:08;-1.00;96.60
35463;DHT22;21578;47.892;9.970;2023-03-01T07:01:56;-0.90;96.60
35463;DHT22;21578;47.892;9.970;2023-03-01T07:06:43;-0.90;96.60
35463;DHT22;21578;47.892;9.970;2023-03-01T07:11:29;-1.00;96.60
35463;DHT22;21578;47.892;9.970;2023-03-01T07:16:16;-0.90;96.60
35463;DHT22;21578;47.892;9.970;2023-03-01T07:21:06;-1.00;96.60
35463;DHT22;21578;47.892;9.970;2023-03-01T07:25:53;-0.90;96.60
35463;DHT22;21578;47.892;9.970;2023-03-01T07:30:40;-0.90;96.60
35463;DHT22;21578;47.892;9.970;2023-03-01T07:35:28;-0.90;96.60
35463;DHT22;21578;47.892;9.970;2023-03-01T07:40:16;-0.90;96.60
35463;DHT22;21578;47.892;9.970;2023-03-01T07:45:04;-0.90;96.60
35463;DHT22;21578;47.892;9.970;2023-03-01T07:49:52;-0.90;96.60
35463;DHT22;21578;47.892;9.970;2023-03-01T07:54:38;-0.90;96.60
35463;DHT22;21578;47.892;9.970;2023-03-01T07:59:27;-0.90;96.60
35463;DHT22;21578;47.892;9.970;2023-03-01T08:04:15;-0.90;96.60
35463;DHT22;21578;47.892;9.970;2023-03-01T08:09:02;-0.90;96.60
35463;DHT22;21578;47.892;9.970;2023-03-01T08:13:49;-0.80;96.60
35463;DHT22;21578;47.892;9.970;2023-03-01T08:18:37;-0.80;96.60
35463;DHT22;21578;47.892;9.970;2023-03-01T08:23:24;-0.80;96.60
35463;DHT22;21578;47.892;9.970;2023-03-01T08:28:12;-0.70;96.60
35463;DHT22;21578;47.892;9.970;2023-03-01T08:32:59;-0.80;96.60
35463;DHT22;21578;47.892;9.970;2023-03-01T08:37:47;-0.80;96.60
35463;DHT22;21578;47.892;9.970;2023-03-01T08:42:34;-0.80;96.60
35463;DHT22;21578;47.892;9.970;2023-03-01T08:47:21;-0.90;96.60
35463;DHT22;21578;47.892;9.970;2023-03-01T08:52:08;-0.80;96.60
35463;DHT22;21578;47.892;9.970;2023-03-01T08:56:56;-0.80;96.60
35463;DHT22;21578;47.892;9.970;2023-03-01T09:01:44;-0.90;96.60
35463;DHT22;21578;47.892;9.970;2023-03-01T09:06:31;-0.70;96.60
35463;DHT22;21578;47.892;9.970;2023-03-01T09:11:21;-0.80;96.60
35463;DHT22;21578;47.892;9.970;2023-03-01T09:16:11;-0.80;96.60
35463;DHT22;21578;47.892;9.970;2023-03-01T09:21:02;-0.70;96.60
35463;DHT22;21578;47.892;9.970;2023-03-01T09:25:52;-0.70;96.60
35463;DHT22;21578;47.892;9.970;2023-03-01T09:30:39;-0.70;96.60
35463;DHT22;21578;47.892;9.970;2023-03-01T09:35:27;-0.60;96.60
35463;DHT22;21578;47.892;9.970;2023-03-01T09:40:17;-0.50;96.60
35463;DHT22;21578;47.892;9.970;2023-03-01T09:45:05;-0.50;96.60
35463;DHT22;21578;47.892;9.970;2023-03-01T09:50:00;-0.50;96.60
35463;DHT22;21578;47.892;9.970;2023-03-01T09:54:53;-0.40;96.60
35463;DHT22;21578;47.892;9.970;2023-03-01T09:59:52;-0.40;96.60
35463;DHT22;21578;47.892;9.970;2023-03-01T10:04:45;-0.50;96.60
35463;DHT22;21578;47.892;9.970;2023-03-01T10:09:35;-0.60;96.60
35463;DHT22;21578;47.892;9.970;2023-03-01T10:14:30;-0.60;96.60
35463;DHT22;21578;47.892;9.970;2023-03-01T10:19:22;-0.50;96.60
35463;DHT22;21578;47.892;9.970;2023-03-01T10:24:12;-0.60;96.60
35463;DHT22;21578;47.892;9.970;2023-03-01T10:29:03;-0.60;96.60
35463;DHT22;21578;47.892;9.970;2023-03-01T10:33:51;-0.50;96.60
35463;DHT22;21578;47.892;9.970;2023-03-01T10:38:49;-0.50;96.60
35463;DHT22;21578;47.892;9.970;2023-03-01T10:43:44;-0.40;96.60
35463;DHT22;21578;47.892;9.970;2023-03-01T10:48:31;-0.30;96.60
35463;DHT22;21578;47.892;9.970;2023-03-01T10:53:25;-0.10;96.60
35463;DHT22;21578;47.892;9.970;2023-03-01T10:58:19;0.00;96.60
35463;DHT22;21578;47.892;9.970;2023-03-01T11:03:12;0.00;96.60
35463;DHT22;21578;47.892;9.970;2023-03-01T11:08:00;-0.10;96.60
35463;DHT22;21578;47.892;9.970;2023-03-01T11:12:50;-0.10;96.60
35463;DHT22;21578;47.892;9.970;2023-03-01T11:17:37;-0.20;96.60
35463;DHT22;21578;47.892;9.970;2023-03-01T11:22:24;-0.10;96.60
35463;DHT22;21578;47.892;9.970;2023-03-01T11:27:18;-0.10;96.60
35463;DHT22;21578;47.892;9.970;2023-03-01T11:32:09;0.00;96.60
35463;DHT22;21578;47.892;9.970;2023-03-01T11:37:00;0.10;96.60
35463;DHT22;21578;47.892;9.970;2023-03-01T11:41:51;0.10;96.60
35463;DHT22;21578;47.892;9.970;2023-03-01T11:46:53;0.30;96.60
35463;DHT22;21578;47.892;9.970;2023-03-01T11:51:48;0.30;96.60
35463;DHT22;21578;47.892;9.970;2023-03-01T11:56:42;0.50;96.60
35463;DHT22;21578;47.892;9.970;2023-03-01T12:01:43;0.60;96.60
35463;DHT22;21578;47.892;9.970;2023-03-01T12:06:42;0.40;96.60
35463;DHT22;21578;47.892;9.970;2023-03-01T12:11:52;0.40;96.60
35463;DHT22;21578;47.892;9.970;2023-03-01T12:22:05;0.50;96.60
35463;DHT22;21578;47.892;9.970;2023-03-01T12:27:07;0.60;96.60
35463;DHT22;21578;47.892;9.970;2023-03-01T12:37:32;0.60;96.60
35463;DHT22;21578;47.892;9.970;2023-03-01T12:42:25;0.50;96.60
35463;DHT22;21578;47.892;9.970;2023-03-01T12:47:23;0.50;96.60
35463;DHT22;21578;47.892;9.970;2023-03-01T12:52:18;0.60;96.60
35463;DHT22;21578;47.892;9.970;2023-03-01T12:57:14;0.80;96.60
35463;DHT22;21578;47.892;9.970;2023-03-01T13:02:08;0.60;96.60
35463;DHT22;21578;47.892;9.970;2023-03-01T13:12:50;0.60;96.60
35463;DHT22;21578;47.892;9.970;2023-03-01T13:17:43;0.80;96.60
35463;DHT22;21578;47.892;9.970;2023-03-01T13:22:33;0.90;96.60
35463;DHT22;21578;47.892;9.970;2023-03-01T13:27:23;0.90;96.60
35463;DHT22;21578;47.892;9.970;2023-03-01T13:32:24;0.80;96.60
35463;DHT22;21578;47.892;9.970;2023-03-01T13:37:31;0.80;96.60
35463;DHT22;21578;47.892;9.970;2023-03-01T13:42:46;0.80;96.60
35463;DHT22;21578;47.892;9.970;2023-03-01T13:47:39;0.80;96.60
35463;DHT22;21578;47.892;9.970;2023-03-01T13:52:38;0.60;96.60
35463;DHT22;21578;47.892;9.970;2023-03-01T13:57:30;0.60;96.60
35463;DHT22;21578;47.892;9.970;2023-03-01T14:02:19;0.70;96.60
35463;DHT22;21578;47.892;9.970;2023-03-01T14:07:12;0.80;96.60
35463;DHT22;21578;47.892;9.970;2023-03-01T14:12:30;0.70;96.60
35463;DHT22;21578;47.892;9.970;2023-03-01T14:17:52;0.70;96.60
35463;DHT22;21578;47.892;9.970;2023-03-01T14:22:43;0.70;96.60
35463;DHT22;21578;47.892;9.970;2023-03-01T14:27:35;0.70;96.60
35463;DHT22;21578;47.892;9.970;2023-03-01T14:32:27;0.70;96.60
35463;DHT22;21578;47.892;9.970;2023-03-01T14:37:20;0.80;96.60
35463;DHT22;21578;47.892;9.970;2023-03-01T14:42:09;0.90;96.60
35463;DHT22;21578;47.892;9.970;2023-03-01T14:46:56;0.80;96.60
35463;DHT22;21578;47.892;9.970;2023-03-01T14:51:53;0.90;96.60
35463;DHT22;21578;47.892;9.970;2023-03-01T14:56:45;1.00;96.60
35463;DHT22;21578;47.892;9.970;2023-03-01T15:01:34;1.00;96.60
35463;DHT22;21578;47.892;9.970;2023-03-01T15:06:22;1.10;96.60
35463;DHT22;21578;47.892;9.970;2023-03-01T15:11:19;1.20;96.60
35463;DHT22;21578;47.892;9.970;2023-03-01T15:16:10;1.30;96.60
35463;DHT22;21578;47.892;9.970;2023-03-01T15:21:08;1.40;96.60
35463;DHT22;21578;47.892;9.970;2023-03-01T15:25:56;1.40;96.60
35463;DHT22;21578;47.892;9.970;2023-03-01T15:30:43;1.40;96.60
35463;DHT22;21578;47.892;9.970;2023-03-01T15:35:39;1.40;96.60
35463;DHT22;21578;47.892;9.970;2023-03-01T15:40:29;1.40;96.60
35463;DHT22;21578;47.892;9.970;2023-03-01T15:45:23;1.40;96.60
35463;DHT22;21578;47.892;9.970;2023-03-01T15:50:17;1.40;96.60
35463;DHT22;21578;47.892;9.970;2023-03-01T15:55:14;1.50;96.60
35463;DHT22;21578;47.892;9.970;2023-03-01T16:00:04;1.40;96.60
35463;DHT22;21578;47.892;9.970;2023-03-01T16:04:56;1.40;96.60
35463;DHT22;21578;47.892;9.970;2023-03-01T16:09:43;1.30;96.60
35463;DHT22;21578;47.892;9.970;2023-03-01T16:14:30;1.30;96.60
35463;DHT22;21578;47.892;9.970;2023-03-01T16:19:18;1.30;96.60
35463;DHT22;21578;47.892;9.970;2023-03-01T16:24:06;1.30;96.60
35463;DHT22;21578;47.892;9.970;2023-03-01T16:28:55;1.20;96.60
35463;DHT22;21578;47.892;9.970;2023-03-01T16:33:42;1.20;96.60
35463;DHT22;21578;47.892;9.970;2023-03-01T16:38:36;1.20;96.60
35463;DHT22;21578;47.892;9.970;2023-03-01T16:43:24;1.20;96.60
35463;DHT22;21578;47.892;9.970;2023-03-01T16:48:11;1.10;96.60
35463;DHT22;21578;47.892;9.970;2023-03-01T16:52:58;1.10;96.60
35463;DHT22;21578;47.892;9.970;2023-03-01T16:57:46;1.00;96.60
35463;DHT22;21578;47.892;9.970;2023-03-01T17:02:33;1.10;96.60
35463;DHT22;21578;47.892;9.970;2023-03-01T17:07:21;1.10;96.60
35463;DHT22;21578;47.892;9.970;2023-03-01T17:12:08;1.10;96.60
35463;DHT22;21578;47.892;9.970;2023-03-01T17:16:56;1.00;96.60
35463;DHT22;21578;47.892;9.970;2023-03-01T17:21:43;1.00;96.60
35463;DHT22;21578;47.892;9.970;2023-03-01T17:26:30;1.00;96.60
35463;DHT22;21578;47.892;9.970;2023-03-01T17:31:18;0.90;96.60
35463;DHT22;21578;47.892;9.970;2023-03-01T17:36:06;0.90;96.60
35463;DHT22;21578;47.892;9.970;2023-03-01T17:40:53;0.90;96.60
35463;DHT22;21578;47.892;9.970;2023-03-01T17:45:40;0.90;96.60
35463;DHT22;21578;47.892;9.970;2023-03-01T17:50:29;0.90;96.60
35463;DHT22;21578;47.892;9.970;2023-03-01T17:55:17;0.90;96.60
35463;DHT22;21578;47.892;9.970;2023-03-01T18:00:06;0.90;96.60
35463;DHT22;21578;47.892;9.970;2023-03-01T18:04:56;0.90;96.60
35463;DHT22;21578;47.892;9.970;2023-03-01T18:09:43;0.80;96.60
35463;DHT22;21578;47.892;9.970;2023-03-01T18:14:32;0.80;96.60
35463;DHT22;21578;47.892;9.970;2023-03-01T18:19:19;0.80;96.60
35463;DHT22;21578;47.892;9.970;2023-03-01T18:24:06;0.90;96.60
35463;DHT22;21578;47.892;9.970;2023-03-01T18:28:54;0.80;96.60
35463;DHT22;21578;47.892;9.970;2023-03-01T18:33:44;0.80;96.60
35463;DHT22;21578;47.892;9.970;2023-03-01T18:38:31;0.80;96.60
35463;DHT22;21578;47.892;9.970;2023-03-01T18:43:18;0.80;96.60
35463;DHT22;21578;47.892;9.970;2023-03-01T18:48:05;0.70;96.60
35463;DHT22;21578;47.892;9.970;2023-03-01T18:52:53;0.80;96.60
35463;DHT22;21578;47.892;9.970;2023-03-01T18:57:40;0.80;96.60
35463;DHT22;21578;47.892;9.970;2023-03-01T19:02:27;0.70;96.60
35463;DHT22;21578;47.892;9.970;2023-03-01T19:07:14;0.70;96.60
35463;DHT22;21578;47.892;9.970;2023-03-01T19:12:02;0.70;96.60
35463;DHT22;21578;47.892;9.970;2023-03-01T19:16:50;0.60;96.60
35463;DHT22;21578;47.892;9.970;2023-03-01T19:21:37;0.60;96.60
35463;DHT22;21578;47.892;9.970;2023-03-01T19:26:26;0.60;96.60
35463;DHT22;21578;47.892;9.970;2023-03-01T19:31:16;0.50;96.60
35463;DHT22;21578;47.892;9.970;2023-03-01T19:36:04;0.50;96.60
35463;DHT22;21578;47.892;9.970;2023-03-01T19:40:51;0.50;96.60
35463;DHT22;21578;47.892;9.970;2023-03-01T19:45:38;0.60;96.60
35463;DHT22;21578;47.892;9.970;2023-03-01T19:50:26;0.60;96.60
35463;DHT22;21578;47.892;9.970;2023-03-01T19:55:13;0.70;96.60
35463;DHT22;21578;47.892;9.970;2023-03-01T20:00:00;0.60;96.60
35463;DHT22;21578;47.892;9.970;2023-03-01T20:04:47;0.70;96.60
35463;DHT22;21578;47.892;9.970;2023-03-01T20:09:35;0.70;96.60
35463;DHT22;21578;47.892;9.970;2023-03-01T20:14:22;0.70;96.60
35463;DHT22;21578;47.892;9.970;2023-03-01T20:19:09;0.60;96.60
35463;DHT22;21578;47.892;9.970;2023-03-01T20:23:56;0.70;96.60
35463;DHT22;21578;47.892;9.970;2023-03-01T20:28:45;0.70;96.60
35463;DHT22;21578;47.892;9.970;2023-03-01T20:33:32;0.70;96.60
35463;DHT22;21578;47.892;9.970;2023-03-01T20:38:19;0.70;96.60
35463;DHT22;21578;47.892;9.970;2023-03-01T20:43:06;0.70;96.60
35463;DHT22;21578;47.892;9.970;2023-03-01T20:47:54;0.70;96.60
35463;DHT22;21578;47.892;9.970;2023-03-01T20:52:41;0.70;96.60
35463;DHT22;21578;47.892;9.970;2023-03-01T20:57:28;0.70;96.60
35463;DHT22;21578;47.892;9.970;2023-03-01T21:02:14;0.70;96.60
35463;DHT22;21578;47.892;9.970;2023-03-01T21:07:03;0.70;96.60
35463;DHT22;21578;47.892;9.970;2023-03-01T21:11:50;0.80;96.60
35463;DHT22;21578;47.892;9.970;2023-03-01T21:16:37;0.70;96.60
35463;DHT22;21578;47.892;9.970;2023-03-01T21:21:24;0.70;96.60
35463;DHT22;21578;47.892;9.970;2023-03-01T21:26:14;0.70;96.60
35463;DHT22;21578;47.892;9.970;2023-03-01T21:31:03;0.70;96.60
35463;DHT22;21578;47.892;9.970;2023-03-01T21:35:50;0.70;96.60
35463;DHT22;21578;47.892;9.970;2023-03-01T21:40:36;0.70;96.60
35463;DHT22;21578;47.892;9.970;2023-03-01T21:45:25;0.80;96.60
35463;DHT22;21578;47.892;9.970;2023-03-01T21:50:11;0.90;96.60
35463;DHT22;21578;47.892;9.970;2023-03-01T21:54:58;0.90;96.60
35463;DHT22;21578;47.892;9.970;2023-03-01T21:59:47;0.80;96.60
35463;DHT22;21578;47.892;9.970;2023-03-01T22:04:35;0.80;96.60
35463;DHT22;21578;47.892;9.970;2023-03-01T22:09:23;0.80;96.60
35463;DHT22;21578;47.892;9.970;2023-03-01T22:14:11;0.80;96.60
35463;DHT22;21578;47.892;9.970;2023-03-01T22:18:58;0.80;96.60
35463;DHT22;21578;47.892;9.970;2023-03-01T22:23:46;0.80;96.60
35463;DHT22;21578;47.892;9.970;2023-03-01T22:28:33;0.80;96.60
35463;DHT22;21578;47.892;9.970;2023-03-01T22:33:21;0.80;96.60
35463;DHT22;21578;47.892;9.970;2023-03-01T22:38:08;0.70;96.60
35463;DHT22;21578;47.892;9.970;2023-03-01T22:42:56;0.70;96.60
35463;DHT22;21578;47.892;9.970;2023-03-01T22:47:43;0.70;96.60
35463;DHT22;21578;47.892;9.970;2023-03-01T22:52:30;0.70;96.60
35463;DHT22;21578;47.892;9.970;2023-03-01T22:57:17;0.70;96.60
35463;DHT22;21578;47.892;9.970;2023-03-01T23:02:05;0.60;96.60
35463;DHT22;21578;47.892;9.970;2023-03-01T23:06:52;0.60;96.60
35463;DHT22;21578;47.892;9.970;2023-03-01T23:11:39;0.60;96.60
35463;DHT22;21578;47.892;9.970;2023-03-01T23:16:26;0.60;96.60
35463;DHT22;21578;47.892;9.970;2023-03-01T23:21:16;0.60;96.60
35463;DHT22;21578;47.892;9.970;2023-03-01T23:26:05;0.60;96.60
35463;DHT22;21578;47.892;9.970;2023-03-01T23:30:53;0.60;96.60
35463;DHT22;21578;47.892;9.970;2023-03-01T23:35:40;0.60;96.60
35463;DHT22;21578;47.892;9.970;2023-03-01T23:40:28;0.60;96.60
35463;DHT22;21578;47.892;9.970;2023-03-01T23:45:15;0.50;96.60
35463;DHT22;21578;47.892;9.970;2023-03-01T23:50:03;0.50;96.60
35463;DHT22;21578;47.892;9.970;2023-03-01T23:54:50;0.50;96.60
35463;DHT22;21578;47.892;9.970;2023-03-01T23:59:38;0.50;96.60
